KCHA/CHA METAR and TAF weather

Enter ICAO airport designator
Station Type Date Time Source
KCHA METAR 2018/10/21 02:53 UTC NOAA

KCHA 210253Z 31005KT 10SM SCT150 BKN250 13/08 A3013 RMK AO2 SLP199 T01280078 53022


Station Type Date Time Source
KCHA Decoded METAR 2018/10/21 02:53 UTC NOAA

LOVELL FIELD, TN, United States (KCHA) 35-02N 085-12W 210M
Oct 20, 2018 - 10:53 PM EDT / 2018.10.21 0253 UTC
Wind: from the NW (310 degrees) at 6 MPH (5 KT):0
Visibility: 10 mile(s):0
Sky conditions: mostly cloudy
Temperature: 55.0 F (12.8 C)
Dew Point: 46.0 F (7.8 C)
Relative Humidity: 71%
Pressure (altimeter): 30.13 in. Hg (1020 hPa)
Pressure tendency: 0.06 inches (2.2 hPa) higher than three hours ago
ob: KCHA 210253Z 31005KT 10SM SCT150 BKN250 13/08 A3013 RMK AO2 SLP199 T01280078 53022
cycle: 3

Station Type Date Time Source
KCHA TAF 2018/10/21 03:58 UTC NOAA

TAF
AMD KCHA 210257Z 2103/2124 29010KT P6SM FEW060 BKN250
FM210600 35014G24KT P6SM SKC
FM211400 01010G18KT P6SM SKC
FM212000 01008KT P6SM SKC


Example: see airport list